Time;durP1;ratioP1;P1;durP2;ratioP2;P2;SDS_P1;SDS_P2;PMS_P1;PMS_P2;Temp;Humidity;BMP_temperature;BMP_pressure;BME280_temperature;BME280_humidity;BME280_pressure;Samples;Min_cycle;Max_cycle;Signal;HPM_P1;HPM_P2
2022/10/29 00:02:14;;;;;;;24.42;8.85;;;12.70;99.90;;;;;;4940728;29;20095;-73
2022/10/29 00:04:40;;;;;;;34.10;9.52;;;12.70;99.90;;;;;;4932344;29;20090;-73
2022/10/29 00:07:05;;;;;;;38.38;9.85;;;12.70;99.90;;;;;;4932340;29;20062;-73
2022/10/29 00:09:31;;;;;;;29.80;9.60;;;12.60;99.90;;;;;;4931255;29;20042;-73
2022/10/29 00:11:57;;;;;;;25.25;7.55;;;12.60;99.90;;;;;;4948058;28;20047;-73
2022/10/29 00:14:22;;;;;;;23.55;8.63;;;12.80;99.90;;;;;;4931153;29;20134;-73
2022/10/29 00:16:48;;;;;;;31.95;9.57;;;12.60;99.90;;;;;;4930986;29;20051;-73
2022/10/29 00:19:14;;;;;;;19.40;7.80;;;12.60;99.90;;;;;;4932254;29;20051;-73
2022/10/29 00:21:39;;;;;;;27.25;8.75;;;12.60;99.90;;;;;;4931712;29;20099;-73
2022/10/29 00:24:07;;;;;;;25.52;8.68;;;12.50;99.90;;;;;;4931433;29;20078;-73
2022/10/29 00:26:33;;;;;;;24.08;7.65;;;12.50;99.90;;;;;;4932330;29;20122;-73
2022/10/29 00:28:58;;;;;;;18.58;8.40;;;12.50;99.90;;;;;;4946993;29;20489;-73
2022/10/29 00:31:24;;;;;;;25.98;8.93;;;12.50;99.90;;;;;;4947358;29;20047;-73
2022/10/29 00:33:52;;;;;;;34.75;9.65;;;12.50;99.90;;;;;;4931028;29;20082;-73
2022/10/29 00:36:23;;;;;;;32.77;10.03;;;12.50;99.90;;;;;;4932501;29;20071;-73
2022/10/29 00:38:49;;;;;;;21.17;9.65;;;12.50;99.90;;;;;;4931314;29;20057;-73
2022/10/29 00:41:21;;;;;;;24.27;8.48;;;12.50;99.90;;;;;;4932092;29;20265;-72
2022/10/29 00:43:49;;;;;;;23.17;8.15;;;12.40;99.90;;;;;;4932068;29;20071;-73
2022/10/29 00:46:26;;;;;;;24.98;9.30;;;12.60;99.90;;;;;;4931594;29;20126;-72
2022/10/29 00:48:54;;;;;;;35.90;9.55;;;12.40;99.90;;;;;;4922928;29;20051;-72
2022/10/29 00:51:21;;;;;;;26.50;8.57;;;12.40;99.90;;;;;;4932491;29;20051;-72
2022/10/29 00:53:52;;;;;;;20.80;9.82;;;12.40;99.90;;;;;;4932467;29;20495;-72
2022/10/29 00:56:19;;;;;;;33.25;9.70;;;12.40;99.90;;;;;;4931146;29;20063;-72
2022/10/29 00:58:45;;;;;;;27.30;11.32;;;12.30;99.90;;;;;;4931057;29;20043;-72
2022/10/29 01:01:11;;;;;;;28.50;9.90;;;12.30;99.90;;;;;;4946047;29;20055;-72
2022/10/29 01:03:37;;;;;;;31.83;11.10;;;12.30;99.90;;;;;;4932262;29;20381;-72
2022/10/29 01:06:04;;;;;;;31.23;11.10;;;12.30;99.90;;;;;;4932360;29;20134;-72
2022/10/29 01:08:29;;;;;;;22.20;9.77;;;12.30;99.90;;;;;;4947627;28;20520;-71
2022/10/29 01:11:07;;;;;;;25.00;9.65;;;12.20;99.90;;;;;;4931950;29;20048;-71
2022/10/29 01:14:14;;;;;;;39.53;10.88;;;12.20;99.90;;;;;;4931980;29;20043;-71
2022/10/29 01:16:52;;;;;;;30.55;11.70;;;12.20;99.90;;;;;;4930465;29;20047;-71
2022/10/29 01:19:33;;;;;;;24.55;11.68;;;12.10;99.90;;;;;;4930038;29;20420;-71
2022/10/29 01:22:10;;;;;;;39.00;11.43;;;12.10;99.90;;;;;;4931931;29;20107;-71
2022/10/29 01:24:56;;;;;;;29.13;11.20;;;12.10;99.90;;;;;;4944318;28;20051;-71
2022/10/29 01:27:43;;;;;;;19.67;10.45;;;12.10;99.90;;;;;;4927656;29;20183;-71
2022/10/29 01:30:20;;;;;;;17.95;9.70;;;12.00;99.90;;;;;;4931844;29;20051;-71
2022/10/29 01:33:09;;;;;;;28.13;10.95;;;12.00;99.90;;;;;;4930405;29;20040;-71
2022/10/29 01:36:03;;;;;;;28.58;10.82;;;11.90;99.90;;;;;;4930534;29;20048;-71
2022/10/29 01:38:38;;;;;;;29.85;10.18;;;11.90;99.90;;;;;;4917296;29;20103;-71
2022/10/29 01:41:41;;;;;;;38.75;10.05;;;11.80;99.90;;;;;;4931142;29;22734;-71
2022/10/29 01:44:16;;;;;;;26.23;10.52;;;11.80;99.90;;;;;;4925632;29;20938;-71
2022/10/29 01:47:10;;;;;;;24.02;11.20;;;11.80;99.90;;;;;;4935220;29;20055;-71
2022/10/29 01:49:40;;;;;;;26.85;11.35;;;11.70;99.90;;;;;;4930463;29;20488;-71
2022/10/29 01:52:09;;;;;;;19.90;11.05;;;11.70;99.90;;;;;;4930459;29;20062;-71
2022/10/29 01:54:39;;;;;;;25.40;13.30;;;11.70;99.90;;;;;;4945855;28;20064;-71
2022/10/29 01:57:35;;;;;;;25.75;11.38;;;11.60;99.90;;;;;;4950751;28;20047;-71
2022/10/29 02:00:05;;;;;;;19.55;11.13;;;11.60;99.90;;;;;;4929770;29;20043;-71
2022/10/29 02:03:00;;;;;;;26.35;11.80;;;11.60;99.90;;;;;;4932385;29;20174;-71
2022/10/29 02:05:58;;;;;;;29.33;10.80;;;11.60;99.90;;;;;;4946631;29;20493;-71
2022/10/29 02:09:11;;;;;;;16.83;9.48;;;11.50;99.90;;;;;;4930469;29;20050;-71
2022/10/29 02:11:48;;;;;;;12.98;8.85;;;11.50;99.90;;;;;;4923400;29;20052;-71
2022/10/29 02:14:22;;;;;;;18.20;9.90;;;11.50;99.90;;;;;;4929552;29;20056;-71
2022/10/29 02:16:49;;;;;;;30.00;10.75;;;11.40;99.90;;;;;;4927858;29;20077;-71
2022/10/29 02:19:15;;;;;;;24.15;9.95;;;11.30;99.90;;;;;;4929773;29;20055;-71
2022/10/29 02:21:43;;;;;;;22.63;10.60;;;11.50;99.90;;;;;;4945573;29;20057;-70
2022/10/29 02:24:08;;;;;;;31.20;10.15;;;11.30;99.90;;;;;;4945563;29;20051;-70
2022/10/29 02:26:34;;;;;;;21.05;10.93;;;11.30;99.90;;;;;;4929958;29;20044;-70
2022/10/29 02:29:01;;;;;;;24.05;11.15;;;11.30;99.90;;;;;;4930997;29;20520;-70
2022/10/29 02:31:27;;;;;;;21.10;9.38;;;11.20;99.90;;;;;;4923477;29;20059;-70
2022/10/29 02:33:52;;;;;;;21.00;8.13;;;11.00;99.90;;;;;;4929476;29;20066;-70
2022/10/29 02:36:18;;;;;;;20.00;8.95;;;11.00;99.90;;;;;;4930346;29;20493;-70
2022/10/29 02:38:44;;;;;;;12.77;8.27;;;10.90;99.90;;;;;;4913145;29;20039;-70
2022/10/29 02:41:10;;;;;;;8.75;6.80;;;10.80;99.90;;;;;;4931059;29;20047;-69
2022/10/29 02:43:35;;;;;;;18.92;7.47;;;10.70;99.90;;;;;;4930784;29;20123;-70
2022/10/29 02:46:18;;;;;;;13.70;7.85;;;10.70;99.90;;;;;;4928835;29;20079;-70
2022/10/29 02:48:46;;;;;;;14.98;8.90;;;10.70;99.90;;;;;;4930341;29;20067;-71
2022/10/29 02:51:12;;;;;;;10.57;7.63;;;10.60;99.90;;;;;;4928745;29;20058;-70
2022/10/29 02:53:38;;;;;;;13.45;7.68;;;10.60;99.90;;;;;;4930946;29;20043;-70
2022/10/29 02:56:05;;;;;;;9.82;6.22;;;10.60;99.90;;;;;;4928331;29;20040;-70
2022/10/29 02:58:30;;;;;;;10.73;6.75;;;10.50;99.90;;;;;;4929947;29;20052;-70
2022/10/29 03:00:56;;;;;;;14.77;7.90;;;10.50;99.90;;;;;;4928161;29;20063;-70
2022/10/29 03:03:22;;;;;;;11.38;6.78;;;10.50;99.90;;;;;;4928734;29;20062;-70
2022/10/29 03:05:48;;;;;;;10.63;4.82;;;10.40;99.90;;;;;;4928395;29;20052;-70
2022/10/29 03:08:13;;;;;;;7.80;5.53;;;10.40;99.90;;;;;;4928995;29;20055;-70
2022/10/29 03:10:39;;;;;;;13.55;6.15;;;10.30;99.90;;;;;;4929389;29;20044;-70
2022/10/29 03:13:05;;;;;;;13.93;7.38;;;10.30;99.90;;;;;;4930037;29;20463;-70
2022/10/29 03:15:30;;;;;;;12.18;5.97;;;10.30;99.90;;;;;;4930961;29;20044;-70
2022/10/29 03:17:56;;;;;;;9.95;6.97;;;10.30;99.90;;;;;;4929821;29;20052;-70
2022/10/29 03:20:21;;;;;;;15.80;7.10;;;10.30;99.90;;;;;;4928584;29;20055;-70
2022/10/29 03:22:47;;;;;;;23.55;7.65;;;10.20;99.90;;;;;;4928225;29;20083;-70
2022/10/29 03:25:14;;;;;;;29.08;9.55;;;10.10;99.90;;;;;;4929703;29;20195;-70
2022/10/29 03:27:43;;;;;;;24.13;9.82;;;10.20;99.90;;;;;;4929407;29;20066;-70
2022/10/29 03:30:10;;;;;;;28.48;8.55;;;10.20;99.90;;;;;;4929655;29;20099;-70
2022/10/29 03:32:40;;;;;;;17.58;7.85;;;10.10;99.90;;;;;;4930541;29;20070;-69
2022/10/29 03:35:07;;;;;;;17.90;8.43;;;10.00;99.90;;;;;;4949487;28;20051;-70
2022/10/29 03:37:33;;;;;;;17.15;8.15;;;10.00;99.90;;;;;;4927969;29;20047;-69
2022/10/29 03:39:58;;;;;;;19.50;7.05;;;10.00;99.90;;;;;;4928778;29;20055;-69
2022/10/29 03:42:24;;;;;;;17.88;6.95;;;10.00;99.90;;;;;;4928988;29;20055;-69
2022/10/29 03:44:49;;;;;;;16.92;7.55;;;10.00;99.90;;;;;;4928641;29;20476;-70
2022/10/29 03:47:15;;;;;;;21.58;8.77;;;10.00;99.90;;;;;;4944842;29;20052;-70
2022/10/29 03:49:41;;;;;;;21.55;8.85;;;9.90;99.90;;;;;;4936508;29;20053;-69
2022/10/29 03:52:06;;;;;;;15.27;7.25;;;9.90;99.90;;;;;;4936007;28;20127;-70
2022/10/29 03:54:32;;;;;;;13.07;6.95;;;10.00;99.90;;;;;;4931763;29;20055;-69
2022/10/29 03:56:58;;;;;;;12.70;8.10;;;9.90;99.90;;;;;;4931510;29;20063;-70
2022/10/29 03:59:24;;;;;;;16.52;7.30;;;10.00;99.90;;;;;;4933125;29;20500;-70
2022/10/29 04:01:51;;;;;;;12.13;6.95;;;9.90;99.90;;;;;;4932028;29;20048;-70
2022/10/29 04:04:16;;;;;;;11.00;7.28;;;10.00;99.90;;;;;;4932902;29;20525;-70
2022/10/29 04:06:42;;;;;;;14.82;6.15;;;10.00;99.90;;;;;;4932683;29;20051;-69
2022/10/29 04:09:07;;;;;;;13.50;6.82;;;10.10;99.90;;;;;;4932612;29;20134;-70
2022/10/29 04:11:33;;;;;;;16.15;8.30;;;10.10;99.90;;;;;;4944719;29;20110;-70
2022/10/29 04:14:00;;;;;;;22.73;9.23;;;10.00;99.90;;;;;;4933064;29;20457;-70
2022/10/29 04:16:26;;;;;;;18.55;10.10;;;10.10;99.90;;;;;;4932252;29;20085;-70
2022/10/29 04:18:52;;;;;;;22.40;9.55;;;10.10;99.90;;;;;;4948387;29;20087;-70
2022/10/29 04:21:18;;;;;;;15.88;9.13;;;10.20;99.90;;;;;;4931873;29;20051;-70
2022/10/29 04:23:43;;;;;;;17.80;10.13;;;10.20;99.90;;;;;;4939229;29;20456;-70
2022/10/29 04:26:09;;;;;;;20.23;9.95;;;10.20;99.90;;;;;;4933414;29;20048;-70
2022/10/29 04:28:35;;;;;;;24.17;10.63;;;10.30;99.90;;;;;;4931517;29;20046;-70
2022/10/29 04:31:05;;;;;;;34.53;12.70;;;10.30;99.90;;;;;;4931670;29;20063;-70
2022/10/29 04:33:31;;;;;;;20.08;11.20;;;10.30;99.90;;;;;;4931409;29;20075;-70
2022/10/29 04:35:56;;;;;;;23.02;10.05;;;10.30;99.90;;;;;;4931267;29;20115;-70
2022/10/29 04:38:22;;;;;;;27.23;10.75;;;10.30;99.90;;;;;;4932661;29;20061;-70
2022/10/29 04:40:48;;;;;;;22.23;8.85;;;10.30;99.90;;;;;;4932893;29;20044;-70
2022/10/29 04:43:14;;;;;;;23.13;11.88;;;10.30;99.90;;;;;;4932591;29;20055;-70
2022/10/29 04:45:40;;;;;;;21.60;11.25;;;10.30;99.90;;;;;;4929586;29;20631;-70
2022/10/29 04:48:06;;;;;;;23.92;11.15;;;10.40;99.90;;;;;;4932460;29;20062;-70
2022/10/29 04:50:32;;;;;;;20.88;10.82;;;10.40;99.90;;;;;;4944957;28;20047;-70
2022/10/29 04:52:59;;;;;;;25.83;11.27;;;10.60;99.90;;;;;;4932267;29;20063;-70
2022/10/29 04:55:25;;;;;;;31.55;12.48;;;10.40;99.90;;;;;;4932453;29;20048;-70
2022/10/29 04:57:51;;;;;;;28.77;12.63;;;10.40;99.90;;;;;;4932714;29;20051;-70
2022/10/29 05:00:16;;;;;;;28.05;12.07;;;10.40;99.90;;;;;;4932242;29;20054;-70
2022/10/29 05:02:49;;;;;;;34.25;12.80;;;10.50;99.90;;;;;;4931579;29;20638;-70
2022/10/29 05:05:16;;;;;;;28.17;13.85;;;10.50;99.90;;;;;;4940104;28;20123;-70
2022/10/29 05:07:42;;;;;;;24.67;11.98;;;10.60;99.90;;;;;;4934858;28;20078;-70
2022/10/29 05:10:08;;;;;;;27.10;12.40;;;10.60;99.90;;;;;;4931715;29;20134;-70
2022/10/29 05:12:33;;;;;;;26.70;14.00;;;10.60;99.90;;;;;;4931198;29;20466;-70
2022/10/29 05:14:59;;;;;;;35.63;13.23;;;10.60;99.90;;;;;;4932626;29;20048;-70
2022/10/29 05:17:25;;;;;;;34.63;13.75;;;10.60;99.90;;;;;;4932370;29;20047;-70
2022/10/29 05:19:50;;;;;;;27.52;13.15;;;10.70;99.90;;;;;;4944486;28;20043;-70
2022/10/29 05:22:16;;;;;;;29.00;13.40;;;10.70;99.90;;;;;;4930893;29;20056;-70
2022/10/29 05:24:42;;;;;;;33.42;15.90;;;10.80;99.90;;;;;;4930509;29;20508;-70
2022/10/29 05:27:08;;;;;;;38.53;15.88;;;10.80;99.90;;;;;;4947327;29;20579;-70
2022/10/29 05:29:33;;;;;;;32.97;17.17;;;10.80;99.90;;;;;;4930414;29;20056;-70
2022/10/29 05:31:59;;;;;;;48.10;17.25;;;10.80;99.90;;;;;;4931387;29;20064;-70
2022/10/29 05:34:25;;;;;;;46.72;16.73;;;10.80;99.90;;;;;;4935711;29;20083;-70
2022/10/29 05:36:50;;;;;;;45.22;19.30;;;10.90;99.90;;;;;;4930897;29;20425;-70
2022/10/29 05:39:16;;;;;;;45.85;17.65;;;10.90;99.90;;;;;;4932014;29;20044;-70
2022/10/29 05:41:42;;;;;;;42.00;16.20;;;11.00;99.90;;;;;;4930371;29;20453;-70
2022/10/29 05:44:08;;;;;;;56.42;19.17;;;11.00;99.90;;;;;;4930488;29;20059;-70
2022/10/29 05:46:34;;;;;;;53.50;19.73;;;11.00;99.90;;;;;;4931189;29;20047;-70
2022/10/29 05:48:59;;;;;;;50.13;18.52;;;11.10;99.90;;;;;;4931222;29;20079;-70
2022/10/29 05:51:25;;;;;;;82.88;23.30;;;11.10;99.90;;;;;;4931132;29;20516;-70
2022/10/29 05:53:50;;;;;;;48.75;18.98;;;11.10;99.90;;;;;;4945687;29;20079;-70
2022/10/29 05:56:16;;;;;;;48.15;20.50;;;11.10;99.90;;;;;;4930239;29;20052;-70
2022/10/29 05:58:42;;;;;;;52.00;20.17;;;11.20;99.90;;;;;;4929982;29;20040;-70
2022/10/29 06:01:09;;;;;;;59.88;20.98;;;11.20;99.90;;;;;;4944372;29;20408;-70
2022/10/29 06:03:37;;;;;;;81.07;21.20;;;11.20;99.90;;;;;;4944695;29;20103;-70
2022/10/29 06:06:03;;;;;;;67.15;21.35;;;11.30;99.90;;;;;;4932801;29;20043;-70
2022/10/29 06:08:29;;;;;;;74.68;25.02;;;11.30;99.90;;;;;;4930273;29;20054;-70
2022/10/29 06:10:55;;;;;;;74.72;28.75;;;11.40;99.90;;;;;;4944312;29;20051;-70
2022/10/29 06:13:21;;;;;;;62.15;26.05;;;11.40;99.90;;;;;;4930614;29;20773;-70
2022/10/29 06:15:50;;;;;;;58.97;24.70;;;11.40;99.90;;;;;;4937729;29;20102;-70
2022/10/29 06:18:15;;;;;;;69.18;24.15;;;11.50;99.90;;;;;;4930115;29;20055;-70
2022/10/29 06:20:44;;;;;;;77.70;26.02;;;11.50;99.90;;;;;;4945673;29;20432;-70
2022/10/29 06:23:10;;;;;;;;;;;11.50;99.90;;;;;;4930303;29;20052;-70
2022/10/29 06:25:35;;;;;;;82.10;28.08;;;11.60;99.90;;;;;;4930472;29;19946;-70
2022/10/29 06:28:07;;;;;;;81.25;28.05;;;11.60;99.90;;;;;;4927438;29;20131;-70
2022/10/29 06:30:34;;;;;;;84.35;27.70;;;11.60;99.90;;;;;;4929163;29;20052;-70
2022/10/29 06:33:00;;;;;;;108.15;32.70;;;11.60;99.90;;;;;;4932849;29;20043;-70
2022/10/29 06:35:26;;;;;;;65.07;28.67;;;11.70;99.90;;;;;;4930890;29;20107;-70
2022/10/29 06:37:51;;;;;;;64.50;27.70;;;11.70;99.90;;;;;;4926601;29;20043;-71
2022/10/29 06:40:17;;;;;;;68.38;28.17;;;11.70;99.90;;;;;;4929419;29;20047;-70
2022/10/29 06:42:43;;;;;;;69.40;27.25;;;11.80;99.90;;;;;;4927027;29;20047;-70
2022/10/29 06:45:10;;;;;;;69.05;26.92;;;11.80;99.90;;;;;;4933177;29;20058;-69
2022/10/29 06:47:40;;;;;;;76.93;26.75;;;11.80;99.90;;;;;;4928596;29;20052;-70
2022/10/29 06:50:10;;;;;;;71.25;29.52;;;11.80;99.90;;;;;;4945577;28;20882;-70
2022/10/29 06:52:35;;;;;;;71.60;28.42;;;11.80;99.90;;;;;;4943170;28;20051;-70
2022/10/29 06:55:03;;;;;;;77.72;28.70;;;11.80;99.90;;;;;;4943898;29;20051;-70
2022/10/29 06:57:28;;;;;;;55.53;27.38;;;11.80;99.90;;;;;;4928779;29;20067;-69
2022/10/29 06:59:54;;;;;;;61.53;26.67;;;11.90;99.90;;;;;;4936463;29;20048;-70
2022/10/29 07:02:20;;;;;;;59.40;27.83;;;11.90;99.90;;;;;;4944693;29;20044;-70
2022/10/29 07:04:46;;;;;;;63.83;28.75;;;11.80;99.90;;;;;;4930549;29;20094;-69
2022/10/29 07:07:12;;;;;;;53.88;27.70;;;11.80;99.90;;;;;;4929410;29;20051;-69
2022/10/29 07:09:38;;;;;;;54.40;26.58;;;11.90;99.90;;;;;;4912520;29;20051;-70
2022/10/29 07:12:05;;;;;;;56.75;28.92;;;11.90;99.90;;;;;;4930375;29;20059;-69
2022/10/29 07:14:30;;;;;;;62.75;28.88;;;11.90;99.90;;;;;;4929882;29;20059;-70
2022/10/29 07:16:56;;;;;;;60.92;29.52;;;12.00;99.90;;;;;;4930061;29;20437;-70
2022/10/29 07:19:23;;;;;;;53.25;28.33;;;12.00;99.90;;;;;;4933272;29;20061;-69
2022/10/29 07:21:48;;;;;;;57.00;29.75;;;12.00;99.90;;;;;;4919229;29;20062;-70
2022/10/29 07:24:16;;;;;;;55.92;29.02;;;12.10;99.90;;;;;;4930129;29;20048;-69
2022/10/29 07:26:42;;;;;;;56.70;27.90;;;12.10;99.90;;;;;;4929287;29;20055;-69
2022/10/29 07:29:08;;;;;;;56.70;27.17;;;12.10;99.90;;;;;;4940251;29;20509;-69
2022/10/29 07:31:34;;;;;;;75.43;36.60;;;12.10;99.90;;;;;;4930442;29;20054;-69
2022/10/29 07:33:59;;;;;;;66.60;32.63;;;12.20;99.90;;;;;;4933910;29;20405;-69
2022/10/29 07:36:25;;;;;;;93.97;41.50;;;12.20;99.90;;;;;;4947388;28;20123;-70
2022/10/29 07:38:50;;;;;;;104.25;42.35;;;12.30;99.90;;;;;;4932893;29;20043;-69
2022/10/29 07:41:16;;;;;;;100.57;42.80;;;12.30;99.90;;;;;;4933288;29;20065;-69
2022/10/29 07:43:41;;;;;;;69.60;35.13;;;12.20;99.90;;;;;;4933658;29;20122;-69
2022/10/29 07:46:07;;;;;;;75.43;37.78;;;12.50;99.90;;;;;;4933744;29;20047;-69
2022/10/29 07:48:33;;;;;;;85.93;37.75;;;12.30;99.90;;;;;;4945953;29;20058;-69
2022/10/29 07:51:01;;;;;;;91.88;38.47;;;12.40;99.90;;;;;;4946427;28;20055;-69
2022/10/29 07:53:27;;;;;;;70.03;35.47;;;12.20;99.90;;;;;;4932436;29;20131;-69
2022/10/29 07:55:53;;;;;;;90.78;38.67;;;12.20;99.90;;;;;;4931280;29;20097;-69
2022/10/29 07:58:19;;;;;;;95.85;42.85;;;12.50;99.90;;;;;;4930941;29;20052;-69
2022/10/29 08:00:45;;;;;;;110.40;44.13;;;12.40;99.90;;;;;;4932615;29;20044;-69
2022/10/29 08:03:11;;;;;;;73.18;38.42;;;12.40;99.90;;;;;;4930796;29;20099;-69
2022/10/29 08:05:37;;;;;;;79.25;38.97;;;12.40;99.90;;;;;;4932260;29;20052;-69
2022/10/29 08:08:05;;;;;;;75.75;40.85;;;12.40;99.90;;;;;;4932322;29;20059;-70
2022/10/29 08:10:33;;;;;;;76.32;38.83;;;12.50;99.90;;;;;;4931325;29;20051;-70
2022/10/29 08:13:00;;;;;;;70.30;40.47;;;12.50;99.90;;;;;;4933357;29;20436;-70
2022/10/29 08:15:28;;;;;;;79.28;41.90;;;12.50;99.90;;;;;;4932189;29;20074;-70
2022/10/29 08:17:54;;;;;;;72.47;39.70;;;12.60;99.90;;;;;;4931850;29;20051;-70
2022/10/29 08:20:22;;;;;;;73.47;41.17;;;12.60;99.90;;;;;;4953305;28;20059;-70
2022/10/29 08:22:47;;;;;;;78.80;42.05;;;12.60;99.90;;;;;;4948125;29;20051;-69
2022/10/29 08:25:14;;;;;;;73.60;40.08;;;12.60;99.90;;;;;;4932203;29;20106;-70
2022/10/29 08:27:40;;;;;;;83.35;40.50;;;12.70;99.90;;;;;;4932695;29;20432;-70
2022/10/29 08:30:07;;;;;;;75.13;42.92;;;12.70;99.90;;;;;;4947182;28;20059;-70
2022/10/29 08:32:33;;;;;;;75.05;40.90;;;12.80;99.90;;;;;;4931692;29;20138;-70
2022/10/29 08:34:58;;;;;;;77.78;42.15;;;12.80;99.90;;;;;;4936350;29;20048;-70
2022/10/29 08:37:24;;;;;;;77.43;41.97;;;12.90;99.90;;;;;;4931787;29;20501;-70
2022/10/29 08:39:49;;;;;;;74.90;40.67;;;13.00;99.90;;;;;;4945666;29;20051;-70
2022/10/29 08:42:41;;;;;;;82.07;42.00;;;13.00;99.90;;;;;;4932362;29;20058;-70
2022/10/29 08:45:32;;;;;;;79.55;41.53;;;13.10;99.90;;;;;;4927890;29;20052;-71
2022/10/29 08:48:17;;;;;;;76.32;40.78;;;13.10;99.90;;;;;;4931838;29;20047;-70
2022/10/29 08:50:50;;;;;;;79.40;40.40;;;13.20;99.90;;;;;;4924678;29;20783;-70
2022/10/29 08:53:20;;;;;;;81.72;41.00;;;13.20;99.90;;;;;;4930009;29;20799;-70
2022/10/29 08:55:46;;;;;;;72.88;39.03;;;13.30;99.90;;;;;;4929276;29;20637;-70
2022/10/29 08:58:32;;;;;;;80.43;39.35;;;13.30;99.90;;;;;;4928783;29;20102;-70
2022/10/29 09:00:58;;;;;;;80.45;40.33;;;13.50;99.90;;;;;;4928043;29;20059;-71
2022/10/29 09:03:28;;;;;;;78.88;40.47;;;13.50;99.90;;;;;;4931741;29;20424;-70
2022/10/29 09:06:08;;;;;;;85.57;43.33;;;13.50;99.90;;;;;;4930659;29;20155;-70
2022/10/29 09:08:56;;;;;;;82.82;41.55;;;13.70;99.90;;;;;;4929778;29;20595;-70
2022/10/29 09:11:51;;;;;;;76.70;42.50;;;13.70;99.90;;;;;;4932432;29;20059;-70
2022/10/29 09:15:08;;;;;;;67.18;39.33;;;13.80;99.90;;;;;;4930057;29;20739;-70
2022/10/29 09:18:11;;;;;;;91.85;42.83;;;13.90;99.90;;;;;;4928891;29;20051;-70
2022/10/29 09:20:52;;;;;;;77.88;37.63;;;14.00;99.90;;;;;;4931577;29;20062;-70
2022/10/29 09:23:39;;;;;;;74.88;39.92;;;14.00;99.90;;;;;;4929118;29;20047;-70
2022/10/29 09:26:14;;;;;;;85.50;44.65;;;14.10;99.90;;;;;;4928561;29;20066;-70
2022/10/29 09:29:12;;;;;;;68.47;40.58;;;14.30;99.90;;;;;;4929845;29;20048;-70
2022/10/29 09:31:45;;;;;;;96.50;40.92;;;14.30;99.90;;;;;;4914762;29;20539;-72
2022/10/29 09:34:17;;;;;;;80.72;36.60;;;14.30;99.90;;;;;;4928356;29;20511;-72
2022/10/29 09:36:45;;;;;;;69.90;36.47;;;14.40;99.90;;;;;;4926601;29;20051;-72
2022/10/29 09:39:23;;;;;;;73.85;40.20;;;14.40;99.90;;;;;;4944842;29;20055;-71
2022/10/29 09:41:53;;;;;;;79.05;39.90;;;14.60;99.90;;;;;;4930338;29;20693;-70
2022/10/29 09:44:28;;;;;;;69.30;37.63;;;14.60;99.90;;;;;;4930859;29;20059;-70
2022/10/29 09:47:05;;;;;;;93.50;43.15;;;14.60;99.90;;;;;;4930288;29;20048;-69
2022/10/29 09:49:43;;;;;;;84.73;40.33;;;14.80;99.90;;;;;;4928619;29;20059;-69
2022/10/29 09:52:18;;;;;;;72.03;38.17;;;14.80;99.90;;;;;;4945060;28;20117;-69
2022/10/29 09:54:44;;;;;;;69.18;35.45;;;14.90;99.90;;;;;;4914651;29;20040;-70
2022/10/29 09:57:19;;;;;;;72.35;38.53;;;15.00;99.90;;;;;;4930163;29;20087;-70
2022/10/29 09:59:50;;;;;;;82.30;39.70;;;15.10;99.90;;;;;;4929378;29;20042;-70
2022/10/29 10:02:36;;;;;;;71.03;37.22;;;15.20;99.90;;;;;;4929970;29;20055;-70
2022/10/29 10:05:12;;;;;;;61.55;35.20;;;15.30;99.90;;;;;;4924124;29;20485;-70
2022/10/29 10:07:41;;;;;;;65.78;35.15;;;15.30;99.90;;;;;;4928119;29;20054;-70
2022/10/29 10:10:19;;;;;;;78.10;36.25;;;15.40;99.90;;;;;;4929453;29;20679;-70
2022/10/29 10:12:48;;;;;;;74.70;35.28;;;15.60;99.90;;;;;;4945147;29;20732;-70
2022/10/29 10:15:27;;;;;;;68.78;33.20;;;15.50;99.90;;;;;;4931061;29;20420;-70
2022/10/29 10:17:55;;;;;;;58.95;33.95;;;15.60;99.90;;;;;;4945359;29;20171;-70
2022/10/29 10:20:44;;;;;;;59.15;34.00;;;15.80;99.90;;;;;;4924626;29;20079;-70
2022/10/29 10:23:22;;;;;;;62.60;34.35;;;15.80;99.90;;;;;;4933070;28;20052;-70
2022/10/29 10:25:48;;;;;;;63.33;36.63;;;15.90;99.90;;;;;;4930957;29;20040;-71
2022/10/29 10:28:21;;;;;;;68.65;38.28;;;15.90;99.90;;;;;;4929773;29;20040;-71
2022/10/29 10:31:09;;;;;;;61.03;36.00;;;15.90;99.90;;;;;;4945335;29;20056;-71
2022/10/29 10:33:43;;;;;;;54.45;35.90;;;16.10;99.90;;;;;;4932304;29;20059;-70
2022/10/29 10:36:09;;;;;;;73.75;39.50;;;16.10;99.90;;;;;;4945804;29;20067;-71
2022/10/29 10:38:47;;;;;;;75.75;40.25;;;16.10;99.90;;;;;;4942539;29;20048;-69
2022/10/29 10:41:15;;;;;;;71.93;38.97;;;16.20;99.90;;;;;;4944513;28;20678;-69
2022/10/29 10:43:45;;;;;;;75.25;40.08;;;16.30;99.90;;;;;;4928506;29;20175;-69
2022/10/29 10:46:22;;;;;;;75.85;40.53;;;16.20;99.90;;;;;;4930912;29;20058;-69
2022/10/29 10:49:10;;;;;;;71.97;38.38;;;16.30;99.90;;;;;;4928370;29;20048;-69
2022/10/29 10:51:38;;;;;;;64.95;39.13;;;16.40;99.90;;;;;;4930920;29;20079;-70
2022/10/29 10:54:21;;;;;;;70.95;40.10;;;16.40;99.90;;;;;;4929958;29;20051;-69
2022/10/29 10:57:20;;;;;;;70.70;38.60;;;16.60;99.90;;;;;;4924934;29;20055;-69
2022/10/29 10:59:57;;;;;;;69.68;39.30;;;16.70;99.90;;;;;;4916086;29;20416;-70
2022/10/29 11:02:26;;;;;;;86.75;36.83;;;16.90;99.90;;;;;;4919087;29;20773;-69
2022/10/29 11:05:18;;;;;;;71.80;38.15;;;17.10;99.90;;;;;;4928638;29;20040;-69
2022/10/29 11:08:05;;;;;;;68.03;37.35;;;17.10;99.90;;;;;;4927337;29;20063;-69
2022/10/29 11:10:57;;;;;;;70.27;36.00;;;17.10;99.90;;;;;;4929336;29;20461;-69
2022/10/29 11:13:27;;;;;;;66.13;33.47;;;17.20;99.90;;;;;;4927303;29;20406;-69
2022/10/29 11:16:02;;;;;;;57.17;31.20;;;17.30;99.90;;;;;;4929849;29;20048;-69
2022/10/29 11:18:52;;;;;;;54.15;31.65;;;17.30;99.90;;;;;;4930331;29;20039;-69
2022/10/29 11:21:24;;;;;;;63.55;30.50;;;17.30;99.90;;;;;;4930513;29;20556;-69
2022/10/29 11:23:58;;;;;;;57.58;30.25;;;17.30;99.90;;;;;;4929901;29;20047;-69
2022/10/29 11:26:42;;;;;;;53.38;29.27;;;17.40;99.90;;;;;;4944307;29;20048;-69
2022/10/29 11:29:42;;;;;;;55.15;30.63;;;17.50;99.90;;;;;;4933948;29;20505;-69
2022/10/29 11:32:14;;;;;;;56.55;29.75;;;17.60;99.90;;;;;;4938459;29;20060;-69
2022/10/29 11:35:07;;;;;;;53.60;29.02;;;17.70;99.90;;;;;;4945881;28;20055;-69
2022/10/29 11:37:37;;;;;;;53.78;26.90;;;17.80;99.90;;;;;;4924239;29;20056;-69
2022/10/29 11:40:40;;;;;;;64.72;30.77;;;17.90;99.90;;;;;;4926193;29;20055;-69
2022/10/29 11:43:16;;;;;;;41.88;24.85;;;17.90;99.90;;;;;;4926979;29;20056;-69
2022/10/29 11:46:03;;;;;;;51.75;26.73;;;17.90;99.90;;;;;;4929927;29;20074;-69
2022/10/29 11:48:44;;;;;;;45.67;28.63;;;18.00;99.90;;;;;;4929661;29;20477;-69
2022/10/29 11:51:28;;;;;;;41.95;27.50;;;18.10;99.90;;;;;;4928663;29;20119;-69
2022/10/29 11:54:05;;;;;;;46.88;28.58;;;18.10;99.90;;;;;;4945126;29;20055;-69
2022/10/29 11:56:37;;;;;;;;;;;18.20;99.90;;;;;;4930406;29;20043;-69
2022/10/29 11:59:19;;;;;;;49.95;27.38;;;18.20;99.90;;;;;;4929192;29;19934;-68
2022/10/29 12:02:34;;;;;;;54.88;28.77;;;18.30;99.90;;;;;;4920466;29;20074;-69
2022/10/29 12:05:03;;;;;;;46.58;27.73;;;18.40;99.90;;;;;;4929068;29;20905;-68
2022/10/29 12:07:39;;;;;;;59.50;32.72;;;18.40;99.90;;;;;;4930684;29;20051;-68
2022/10/29 12:10:43;;;;;;;61.55;29.02;;;18.50;99.90;;;;;;4932424;29;20056;-68
2022/10/29 12:13:20;;;;;;;50.55;27.08;;;18.60;99.90;;;;;;4928883;29;20195;-69
2022/10/29 12:15:59;;;;;;;67.93;29.55;;;18.70;99.90;;;;;;4929981;29;20179;-69
2022/10/29 12:18:35;;;;;;;52.03;29.13;;;18.80;99.90;;;;;;4929131;29;20075;-69
2022/10/29 12:21:29;;;;;;;54.35;32.00;;;18.90;99.90;;;;;;4932711;29;20043;-68
2022/10/29 12:24:26;;;;;;;57.90;31.33;;;18.90;99.90;;;;;;4932048;29;20052;-68
2022/10/29 12:27:14;;;;;;;62.58;30.65;;;19.00;99.90;;;;;;4927442;29;20043;-69
2022/10/29 12:29:58;;;;;;;51.10;29.35;;;19.00;99.90;;;;;;4947130;28;20454;-69
2022/10/29 12:32:57;;;;;;;64.30;31.88;;;19.10;99.90;;;;;;4926112;29;20126;-69
2022/10/29 12:35:41;;;;;;;49.25;29.45;;;19.10;99.90;;;;;;4947119;29;20052;-69
2022/10/29 12:38:29;;;;;;;58.75;34.08;;;19.10;99.90;;;;;;4935086;29;20047;-68
2022/10/29 12:41:04;;;;;;;67.70;30.80;;;19.20;99.90;;;;;;4932038;29;20052;-69
2022/10/29 12:43:32;;;;;;;63.67;30.67;;;19.20;99.90;;;;;;4932843;29;20047;-69
2022/10/29 12:46:25;;;;;;;58.65;29.08;;;19.20;99.90;;;;;;4927440;29;20087;-68
2022/10/29 12:49:13;;;;;;;63.58;30.05;;;19.20;99.90;;;;;;4929803;29;20040;-68
2022/10/29 12:51:47;;;;;;;56.80;27.05;;;19.30;99.90;;;;;;4932774;29;20126;-68
2022/10/29 12:54:13;;;;;;;49.08;25.60;;;19.30;99.90;;;;;;4932194;29;20059;-69
2022/10/29 12:56:39;;;;;;;48.75;26.55;;;19.40;99.90;;;;;;4946977;28;20102;-69